sensor_id;sensor_type;location;lat;lon;timestamp;pressure;altitude;pressure_sealevel;temperature;humidity
21086;BME280;34247;50.064;19.970;2023-02-28T00:01:15;100534.59;;;2.75;56.00
21086;BME280;34247;50.064;19.970;2023-02-28T00:02:31;100531.03;;;2.80;55.99
21086;BME280;34247;50.064;19.970;2023-02-28T00:03:48;100536.25;;;2.80;55.73
21086;BME280;34247;50.064;19.970;2023-02-28T00:04:57;100539.75;;;2.80;55.86
21086;BME280;34247;50.064;19.970;2023-02-28T00:06:33;100540.72;;;2.76;55.35
21086;BME280;34247;50.064;19.970;2023-02-28T00:07:44;100538.91;;;2.78;55.38
21086;BME280;34247;50.064;19.970;2023-02-28T00:09:15;100533.78;;;2.72;55.27
21086;BME280;34247;50.064;19.970;2023-02-28T00:10:32;100545.13;;;2.72;55.04
21086;BME280;34247;50.064;19.970;2023-02-28T00:11:47;100538.25;;;2.65;54.81
21086;BME280;34247;50.064;19.970;2023-02-28T00:12:55;100535.72;;;2.61;54.37
21086;BME280;34247;50.064;19.970;2023-02-28T00:14:02;100538.34;;;2.61;54.48
21086;BME280;34247;50.064;19.970;2023-02-28T00:15:21;100541.81;;;2.60;54.66
21086;BME280;34247;50.064;19.970;2023-02-28T00:16:29;100539.19;;;2.60;54.49
21086;BME280;34247;50.064;19.970;2023-02-28T00:17:38;100541.81;;;2.61;54.34
21086;BME280;34247;50.064;19.970;2023-02-28T00:18:48;100540.94;;;2.62;54.52
21086;BME280;34247;50.064;19.970;2023-02-28T00:20:12;100544.44;;;2.60;53.90
21086;BME280;34247;50.064;19.970;2023-02-28T00:21:29;100541.84;;;2.58;54.37
21086;BME280;34247;50.064;19.970;2023-02-28T00:22:58;100545.31;;;2.60;54.40
21086;BME280;34247;50.064;19.970;2023-02-28T00:24:12;100548.81;;;2.61;54.21
21086;BME280;34247;50.064;19.970;2023-02-28T00:25:28;100540.97;;;2.61;54.25
21086;BME280;34247;50.064;19.970;2023-02-28T00:26:44;100540.09;;;2.59;53.95
21086;BME280;34247;50.064;19.970;2023-02-28T00:27:48;100538.34;;;2.61;54.15
21086;BME280;34247;50.064;19.970;2023-02-28T00:28:56;100545.31;;;2.60;53.93
21086;BME280;34247;50.064;19.970;2023-02-28T00:30:04;100542.78;;;2.56;53.89
21086;BME280;34247;50.064;19.970;2023-02-28T00:31:20;100541.81;;;2.60;54.21
21086;BME280;34247;50.064;19.970;2023-02-28T00:32:24;100548.03;;;2.53;53.71
21086;BME280;34247;50.064;19.970;2023-02-28T00:33:29;100542.81;;;2.53;53.74
21086;BME280;34247;50.064;19.970;2023-02-28T00:34:33;100544.53;;;2.55;53.66
21086;BME280;34247;50.064;19.970;2023-02-28T00:35:41;100549.91;;;2.47;53.58
21086;BME280;34247;50.064;19.970;2023-02-28T00:36:45;100546.34;;;2.50;53.91
21086;BME280;34247;50.064;19.970;2023-02-28T00:37:52;100538.56;;;2.47;53.82
21086;BME280;34247;50.064;19.970;2023-02-28T00:38:56;100542.84;;;2.51;53.88
21086;BME280;34247;50.064;19.970;2023-02-28T00:40:01;100546.31;;;2.52;53.51
21086;BME280;34247;50.064;19.970;2023-02-28T00:41:10;100547.19;;;2.52;53.77
21086;BME280;34247;50.064;19.970;2023-02-28T00:42:14;100549.03;;;2.47;53.23
21086;BME280;34247;50.064;19.970;2023-02-28T00:43:18;100540.25;;;2.49;53.24
21086;BME280;34247;50.064;19.970;2023-02-28T00:44:25;100543.72;;;2.50;53.50
21086;BME280;34247;50.064;19.970;2023-02-28T00:45:29;100550.72;;;2.49;53.47
21086;BME280;34247;50.064;19.970;2023-02-28T00:46:33;100539.41;;;2.47;53.42
21086;BME280;34247;50.064;19.970;2023-02-28T00:47:37;100547.25;;;2.49;53.22
21086;BME280;34247;50.064;19.970;2023-02-28T00:48:41;100535.91;;;2.48;53.20
21086;BME280;34247;50.064;19.970;2023-02-28T00:49:45;100540.25;;;2.49;53.08
21086;BME280;34247;50.064;19.970;2023-02-28T00:50:49;100546.41;;;2.45;53.29
21086;BME280;34247;50.064;19.970;2023-02-28T00:51:56;100538.53;;;2.48;53.53
21086;BME280;34247;50.064;19.970;2023-02-28T00:53:04;100549.03;;;2.47;53.20
21086;BME280;34247;50.064;19.970;2023-02-28T00:54:23;100556.91;;;2.47;53.47
21086;BME280;34247;50.064;19.970;2023-02-28T00:55:27;100546.41;;;2.47;53.41
21086;BME280;34247;50.064;19.970;2023-02-28T00:56:34;100548.13;;;2.48;53.78
21086;BME280;34247;50.064;19.970;2023-02-28T00:57:37;100542.88;;;2.49;53.78
21086;BME280;34247;50.064;19.970;2023-02-28T00:58:46;100542.88;;;2.49;53.67
21086;BME280;34247;50.064;19.970;2023-02-28T01:00:06;100540.31;;;2.46;53.64
21086;BME280;34247;50.064;19.970;2023-02-28T01:01:17;100538.56;;;2.44;53.90
21086;BME280;34247;50.064;19.970;2023-02-28T01:02:30;100541.25;;;2.41;53.92
21086;BME280;34247;50.064;19.970;2023-02-28T01:03:35;100539.59;;;2.35;54.30
21086;BME280;34247;50.064;19.970;2023-02-28T01:04:40;100537.78;;;2.39;54.28
21086;BME280;34247;50.064;19.970;2023-02-28T01:05:44;100541.28;;;2.39;54.25
21086;BME280;34247;50.064;19.970;2023-02-28T01:06:47;100547.41;;;2.37;54.16
21086;BME280;34247;50.064;19.970;2023-02-28T01:07:51;100548.28;;;2.37;54.38
21086;BME280;34247;50.064;19.970;2023-02-28T01:08:55;100546.59;;;2.35;54.84
21086;BME280;34247;50.064;19.970;2023-02-28T01:09:59;100551.78;;;2.36;54.66
21086;BME280;34247;50.064;19.970;2023-02-28T01:11:12;100550.97;;;2.34;54.76
21086;BME280;34247;50.064;19.970;2023-02-28T01:12:18;100550.97;;;2.34;54.62
21086;BME280;34247;50.064;19.970;2023-02-28T01:13:23;100553.59;;;2.34;54.87
21086;BME280;34247;50.064;19.970;2023-02-28T01:14:27;100551.88;;;2.30;54.95
21086;BME280;34247;50.064;19.970;2023-02-28T01:15:30;100552.81;;;2.28;54.94
21086;BME280;34247;50.064;19.970;2023-02-28T01:16:35;100550.16;;;2.29;55.08
21086;BME280;34247;50.064;19.970;2023-02-28T01:17:39;100547.56;;;2.28;55.08
21086;BME280;34247;50.064;19.970;2023-02-28T01:18:42;100549.34;;;2.26;55.08
21086;BME280;34247;50.064;19.970;2023-02-28T01:19:47;100546.72;;;2.26;55.17
21086;BME280;34247;50.064;19.970;2023-02-28T01:20:51;100552.84;;;2.26;55.30
21086;BME280;34247;50.064;19.970;2023-02-28T01:22:03;100542.38;;;2.25;55.43
21086;BME280;34247;50.064;19.970;2023-02-28T01:23:15;100550.22;;;2.26;55.30
21086;BME280;34247;50.064;19.970;2023-02-28T01:24:19;100554.59;;;2.26;55.42
21086;BME280;34247;50.064;19.970;2023-02-28T01:25:23;100553.72;;;2.25;55.45
21086;BME280;34247;50.064;19.970;2023-02-28T01:26:27;100551.09;;;2.25;55.68
21086;BME280;34247;50.064;19.970;2023-02-28T01:27:31;100545.84;;;2.24;55.88
21086;BME280;34247;50.064;19.970;2023-02-28T01:28:37;100546.72;;;2.24;55.70
21086;BME280;34247;50.064;19.970;2023-02-28T01:29:41;100549.34;;;2.24;55.84
21086;BME280;34247;50.064;19.970;2023-02-28T01:30:49;100551.09;;;2.25;55.84
21086;BME280;34247;50.064;19.970;2023-02-28T01:31:54;100550.25;;;2.25;55.96
21086;BME280;34247;50.064;19.970;2023-02-28T01:32:58;100551.13;;;2.22;55.89
21086;BME280;34247;50.064;19.970;2023-02-28T01:34:03;100555.53;;;2.20;56.22
21086;BME280;34247;50.064;19.970;2023-02-28T01:35:11;100553.81;;;2.19;56.21
21086;BME280;34247;50.064;19.970;2023-02-28T01:36:23;100550.28;;;2.20;56.12
21086;BME280;34247;50.064;19.970;2023-02-28T01:37:32;100563.38;;;2.21;56.12
21086;BME280;34247;50.064;19.970;2023-02-28T01:38:36;100546.78;;;2.21;56.44
21086;BME280;34247;50.064;19.970;2023-02-28T01:39:40;100552.00;;;2.22;56.17
21086;BME280;34247;50.064;19.970;2023-02-28T01:40:48;100561.59;;;2.24;56.22
21086;BME280;34247;50.064;19.970;2023-02-28T01:41:53;100557.22;;;2.22;56.30
21086;BME280;34247;50.064;19.970;2023-02-28T01:42:57;100556.38;;;2.22;56.47
21086;BME280;34247;50.064;19.970;2023-02-28T01:46:01;100560.81;;;2.18;56.92
21086;BME280;34247;50.064;19.970;2023-02-28T01:47:12;100552.94;;;2.18;56.63
21086;BME280;34247;50.064;19.970;2023-02-28T01:48:18;100552.91;;;2.20;56.87
21086;BME280;34247;50.064;19.970;2023-02-28T01:49:23;100556.41;;;2.20;56.64
21086;BME280;34247;50.064;19.970;2023-02-28T01:50:31;100552.03;;;2.21;56.56
21086;BME280;34247;50.064;19.970;2023-02-28T01:51:45;100559.88;;;2.21;56.78
21086;BME280;34247;50.064;19.970;2023-02-28T01:53:00;100547.66;;;2.20;56.79
21086;BME280;34247;50.064;19.970;2023-02-28T01:54:12;100554.59;;;2.22;56.94
21086;BME280;34247;50.064;19.970;2023-02-28T01:55:22;100555.47;;;2.23;56.70
21086;BME280;34247;50.064;19.970;2023-02-28T01:56:33;100558.19;;;2.18;57.07
21086;BME280;34247;50.064;19.970;2023-02-28T01:57:47;100559.03;;;2.19;57.11
21086;BME280;34247;50.064;19.970;2023-02-28T01:58:54;100555.50;;;2.21;57.11
21086;BME280;34247;50.064;19.970;2023-02-28T02:00:16;100553.75;;;2.22;56.99
21086;BME280;34247;50.064;19.970;2023-02-28T02:01:24;100548.56;;;2.19;57.05
21086;BME280;34247;50.064;19.970;2023-02-28T02:02:31;100552.06;;;2.16;56.92
21086;BME280;34247;50.064;19.970;2023-02-28T02:03:35;100550.31;;;2.17;56.88
21086;BME280;34247;50.064;19.970;2023-02-28T02:04:55;100552.94;;;2.17;56.95
21086;BME280;34247;50.064;19.970;2023-02-28T02:06:02;100545.97;;;2.17;57.04
21086;BME280;34247;50.064;19.970;2023-02-28T02:07:14;100544.22;;;2.18;57.06
21086;BME280;34247;50.064;19.970;2023-02-28T02:08:28;100540.72;;;2.19;57.14
21086;BME280;34247;50.064;19.970;2023-02-28T02:09:32;100547.66;;;2.20;57.20
21086;BME280;34247;50.064;19.970;2023-02-28T02:10:43;100542.47;;;2.18;57.17
21086;BME280;34247;50.064;19.970;2023-02-28T02:11:47;100537.22;;;2.18;57.11
21086;BME280;34247;50.064;19.970;2023-02-28T02:14:43;100545.09;;;2.18;57.21
21086;BME280;34247;50.064;19.970;2023-02-28T02:17:48;100531.16;;;2.15;56.99
21086;BME280;34247;50.064;19.970;2023-02-28T02:25:51;100537.34;;;2.08;56.71
21086;BME280;34247;50.064;19.970;2023-02-28T02:27:14;100540.88;;;2.07;56.86
21086;BME280;34247;50.064;19.970;2023-02-28T02:36:31;100530.53;;;1.98;56.89
21086;BME280;34247;50.064;19.970;2023-02-28T02:37:48;100524.44;;;1.96;56.92
21086;BME280;34247;50.064;19.970;2023-02-28T02:42:39;100530.56;;;1.93;56.78
21086;BME280;34247;50.064;19.970;2023-02-28T02:43:56;100526.25;;;1.90;57.08
21086;BME280;34247;50.064;19.970;2023-02-28T02:45:12;100523.63;;;1.90;56.97
21086;BME280;34247;50.064;19.970;2023-02-28T02:46:24;100527.13;;;1.91;56.96
21086;BME280;34247;50.064;19.970;2023-02-28T02:47:32;100526.22;;;1.92;56.97
21086;BME280;34247;50.064;19.970;2023-02-28T02:48:40;100518.41;;;1.90;57.03
21086;BME280;34247;50.064;19.970;2023-02-28T02:49:52;100528.00;;;1.90;57.36
21086;BME280;34247;50.064;19.970;2023-02-28T02:51:03;100524.53;;;1.89;57.24
21086;BME280;34247;50.064;19.970;2023-02-28T02:52:22;100521.03;;;1.87;57.52
21086;BME280;34247;50.064;19.970;2023-02-28T02:53:36;100522.81;;;1.85;57.59
21086;BME280;34247;50.064;19.970;2023-02-28T02:54:45;100516.75;;;1.83;57.83
21086;BME280;34247;50.064;19.970;2023-02-28T02:55:53;100528.09;;;1.82;57.85
21086;BME280;34247;50.064;19.970;2023-02-28T02:57:03;100522.00;;;1.80;58.17
21086;BME280;34247;50.064;19.970;2023-02-28T02:58:17;100526.38;;;1.80;58.09
21086;BME280;34247;50.064;19.970;2023-02-28T02:59:24;100529.00;;;1.80;57.91
21086;BME280;34247;50.064;19.970;2023-02-28T03:00:37;100526.41;;;1.78;58.42
21086;BME280;34247;50.064;19.970;2023-02-28T03:01:42;100525.53;;;1.78;58.51
21086;BME280;34247;50.064;19.970;2023-02-28T03:02:49;100525.56;;;1.76;58.53
21086;BME280;34247;50.064;19.970;2023-02-28T03:04:01;100526.44;;;1.77;58.40
21086;BME280;34247;50.064;19.970;2023-02-28T03:05:24;100519.44;;;1.77;58.58
21086;BME280;34247;50.064;19.970;2023-02-28T03:06:29;100518.56;;;1.77;58.28
21086;BME280;34247;50.064;19.970;2023-02-28T03:07:32;100518.56;;;1.77;58.54
21086;BME280;34247;50.064;19.970;2023-02-28T03:08:38;100524.69;;;1.77;58.43
21086;BME280;34247;50.064;19.970;2023-02-28T03:09:52;100521.16;;;1.78;58.65
21086;BME280;34247;50.064;19.970;2023-02-28T03:11:01;100528.16;;;1.78;58.37
21086;BME280;34247;50.064;19.970;2023-02-28T03:12:12;100521.16;;;1.78;58.42
21086;BME280;34247;50.064;19.970;2023-02-28T03:18:13;100535.22;;;1.71;58.63
21086;BME280;34247;50.064;19.970;2023-02-28T03:20:05;100522.19;;;1.68;58.51
21086;BME280;34247;50.064;19.970;2023-02-28T03:24:13;100524.81;;;1.65;58.81
21086;BME280;34247;50.064;19.970;2023-02-28T03:25:33;100531.81;;;1.64;58.84
21086;BME280;34247;50.064;19.970;2023-02-28T03:26:51;100532.66;;;1.65;59.01
21086;BME280;34247;50.064;19.970;2023-02-28T03:29:39;100533.59;;;1.62;58.91
21086;BME280;34247;50.064;19.970;2023-02-28T03:31:54;100533.63;;;1.61;59.35
21086;BME280;34247;50.064;19.970;2023-02-28T03:34:34;100537.13;;;1.60;59.19
21086;BME280;34247;50.064;19.970;2023-02-28T03:35:51;100531.00;;;1.61;59.29
21086;BME280;34247;50.064;19.970;2023-02-28T03:37:03;100537.97;;;1.62;59.24
21086;BME280;34247;50.064;19.970;2023-02-28T03:38:37;100537.97;;;1.62;59.42
21086;BME280;34247;50.064;19.970;2023-02-28T03:40:10;100540.59;;;1.59;59.63
21086;BME280;34247;50.064;19.970;2023-02-28T03:41:22;100542.34;;;1.58;59.61
21086;BME280;34247;50.064;19.970;2023-02-28T03:42:31;100544.97;;;1.57;59.88
21086;BME280;34247;50.064;19.970;2023-02-28T03:43:43;100541.47;;;1.58;59.86
21086;BME280;34247;50.064;19.970;2023-02-28T03:45:02;100543.22;;;1.59;59.84
21086;BME280;34247;50.064;19.970;2023-02-28T03:46:20;100545.88;;;1.56;60.10
21086;BME280;34247;50.064;19.970;2023-02-28T03:47:42;100536.28;;;1.56;60.22
21086;BME280;34247;50.064;19.970;2023-02-28T03:49:20;100549.38;;;1.55;60.21
21086;BME280;34247;50.064;19.970;2023-02-28T03:50:42;100547.69;;;1.52;60.54
21086;BME280;34247;50.064;19.970;2023-02-28T03:51:50;100543.31;;;1.51;60.58
21086;BME280;34247;50.064;19.970;2023-02-28T03:54:37;100552.06;;;1.49;60.88
21086;BME280;34247;50.064;19.970;2023-02-28T03:55:59;100553.84;;;1.47;61.04
21086;BME280;34247;50.064;19.970;2023-02-28T03:59:12;100545.13;;;1.43;61.00
21086;BME280;34247;50.064;19.970;2023-02-28T04:00:25;100552.16;;;1.40;61.40
21086;BME280;34247;50.064;19.970;2023-02-28T04:01:52;100553.91;;;1.41;61.30
21086;BME280;34247;50.064;19.970;2023-02-28T04:02:57;100552.16;;;1.41;61.39
21086;BME280;34247;50.064;19.970;2023-02-28T04:04:02;100547.78;;;1.42;61.26
21086;BME280;34247;50.064;19.970;2023-02-28T04:05:10;100552.16;;;1.41;61.19
21086;BME280;34247;50.064;19.970;2023-02-28T04:06:21;100548.66;;;1.41;61.46
21086;BME280;34247;50.064;19.970;2023-02-28T04:07:29;100553.91;;;1.41;61.55
21086;BME280;34247;50.064;19.970;2023-02-28T04:08:33;100550.44;;;1.38;61.39
21086;BME280;34247;50.064;19.970;2023-02-28T04:09:38;100553.91;;;1.39;61.33
21086;BME280;34247;50.064;19.970;2023-02-28T04:10:44;100557.41;;;1.40;61.49
21086;BME280;34247;50.064;19.970;2023-02-28T04:11:52;100554.78;;;1.40;61.66
21086;BME280;34247;50.064;19.970;2023-02-28T04:12:56;100553.03;;;1.37;61.62
21086;BME280;34247;50.064;19.970;2023-02-28T04:14:01;100552.22;;;1.35;61.66
21086;BME280;34247;50.064;19.970;2023-02-28T04:15:10;100555.69;;;1.35;61.87
21086;BME280;34247;50.064;19.970;2023-02-28T04:16:15;100558.31;;;1.35;61.67
21086;BME280;34247;50.064;19.970;2023-02-28T04:17:37;100567.03;;;1.34;61.92
21086;BME280;34247;50.064;19.970;2023-02-28T04:18:42;100560.06;;;1.33;61.69
21086;BME280;34247;50.064;19.970;2023-02-28T04:19:48;100557.47;;;1.33;61.73
21086;BME280;34247;50.064;19.970;2023-02-28T04:20:53;100559.25;;;1.31;61.92
21086;BME280;34247;50.064;19.970;2023-02-28T04:21:56;100561.00;;;1.31;61.97
21086;BME280;34247;50.064;19.970;2023-02-28T04:23:00;100562.72;;;1.32;61.95
21086;BME280;34247;50.064;19.970;2023-02-28T04:24:12;100560.13;;;1.30;62.10
21086;BME280;34247;50.064;19.970;2023-02-28T04:25:19;100561.00;;;1.31;62.01
21086;BME280;34247;50.064;19.970;2023-02-28T04:26:23;100559.22;;;1.30;61.97
21086;BME280;34247;50.064;19.970;2023-02-28T04:27:26;100557.50;;;1.30;62.16
21086;BME280;34247;50.064;19.970;2023-02-28T04:28:31;100557.47;;;1.32;62.02
21086;BME280;34247;50.064;19.970;2023-02-28T04:29:35;100556.59;;;1.30;61.99
21086;BME280;34247;50.064;19.970;2023-02-28T04:30:39;100561.84;;;1.30;61.92
21086;BME280;34247;50.064;19.970;2023-02-28T04:31:43;100558.38;;;1.29;61.88
21086;BME280;34247;50.064;19.970;2023-02-28T04:32:46;100562.72;;;1.29;62.18
21086;BME280;34247;50.064;19.970;2023-02-28T04:33:50;100567.97;;;1.27;62.28
21086;BME280;34247;50.064;19.970;2023-02-28T04:34:55;100574.09;;;1.28;62.21
21086;BME280;34247;50.064;19.970;2023-02-28T04:36:01;100563.63;;;1.26;62.15
21086;BME280;34247;50.064;19.970;2023-02-28T04:37:08;100572.31;;;1.28;62.10
21086;BME280;34247;50.064;19.970;2023-02-28T04:38:16;100572.38;;;1.25;62.31
21086;BME280;34247;50.064;19.970;2023-02-28T04:39:24;100574.09;;;1.26;62.48
21086;BME280;34247;50.064;19.970;2023-02-28T04:40:28;100567.97;;;1.27;62.17
21086;BME280;34247;50.064;19.970;2023-02-28T04:41:32;100569.75;;;1.25;62.46
21086;BME280;34247;50.064;19.970;2023-02-28T04:42:37;100566.28;;;1.25;62.01
21086;BME280;34247;50.064;19.970;2023-02-28T04:43:42;100566.28;;;1.22;62.50
21086;BME280;34247;50.064;19.970;2023-02-28T04:44:46;100574.16;;;1.23;62.35
21086;BME280;34247;50.064;19.970;2023-02-28T04:45:50;100573.25;;;1.23;62.40
21086;BME280;34247;50.064;19.970;2023-02-28T04:46:54;100572.38;;;1.22;62.42
21086;BME280;34247;50.064;19.970;2023-02-28T04:47:59;100573.25;;;1.23;62.82
21086;BME280;34247;50.064;19.970;2023-02-28T04:49:03;100572.38;;;1.22;62.74
21086;BME280;34247;50.064;19.970;2023-02-28T04:50:11;100569.78;;;1.21;62.39
21086;BME280;34247;50.064;19.970;2023-02-28T04:51:18;100580.22;;;1.22;62.58
21086;BME280;34247;50.064;19.970;2023-02-28T04:52:22;100575.88;;;1.21;62.77
21086;BME280;34247;50.064;19.970;2023-02-28T04:53:28;100584.63;;;1.20;62.68
21086;BME280;34247;50.064;19.970;2023-02-28T04:54:32;100578.53;;;1.18;63.00
21086;BME280;34247;50.064;19.970;2023-02-28T04:55:37;100582.03;;;1.19;63.04
21086;BME280;34247;50.064;19.970;2023-02-28T04:56:43;100582.91;;;1.18;63.09
21086;BME280;34247;50.064;19.970;2023-02-28T04:57:47;100579.44;;;1.17;63.06
21086;BME280;34247;50.064;19.970;2023-02-28T04:58:51;100581.19;;;1.17;63.31
21086;BME280;34247;50.064;19.970;2023-02-28T04:59:57;100579.44;;;1.14;63.57
21086;BME280;34247;50.064;19.970;2023-02-28T05:02:24;100583.84;;;1.12;63.41
21086;BME280;34247;50.064;19.970;2023-02-28T05:03:28;100586.47;;;1.10;63.64
21086;BME280;34247;50.064;19.970;2023-02-28T05:04:35;100584.72;;;1.11;63.69
21086;BME280;34247;50.064;19.970;2023-02-28T05:05:39;100581.25;;;1.09;63.87
21086;BME280;34247;50.064;19.970;2023-02-28T05:06:43;100581.22;;;1.10;63.72
21086;BME280;34247;50.064;19.970;2023-02-28T05:07:47;100576.03;;;1.09;63.61
21086;BME280;34247;50.064;19.970;2023-02-28T05:08:51;100576.88;;;1.08;63.94
21086;BME280;34247;50.064;19.970;2023-02-28T05:09:55;100585.59;;;1.07;63.95
21086;BME280;34247;50.064;19.970;2023-02-28T05:11:01;100578.66;;;1.06;64.12
21086;BME280;34247;50.064;19.970;2023-02-28T05:12:09;100579.53;;;1.05;64.06
21086;BME280;34247;50.064;19.970;2023-02-28T05:13:13;100590.88;;;1.04;64.22
21086;BME280;34247;50.064;19.970;2023-02-28T05:14:22;100583.91;;;1.03;64.26
21086;BME280;34247;50.064;19.970;2023-02-28T05:15:26;100583.03;;;1.04;64.13
21086;BME280;34247;50.064;19.970;2023-02-28T05:16:29;100582.19;;;1.02;64.55
21086;BME280;34247;50.064;19.970;2023-02-28T05:17:33;100583.03;;;1.04;64.21
21086;BME280;34247;50.064;19.970;2023-02-28T05:18:38;100586.50;;;1.06;64.44
21086;BME280;34247;50.064;19.970;2023-02-28T05:19:42;100586.50;;;1.06;64.45
21086;BME280;34247;50.064;19.970;2023-02-28T05:20:46;100586.56;;;0.98;64.97
21086;BME280;34247;50.064;19.970;2023-02-28T05:21:54;100594.38;;;1.00;64.86
21086;BME280;34247;50.064;19.970;2023-02-28T05:23:02;100588.28;;;0.99;64.61
21086;BME280;34247;50.064;19.970;2023-02-28T05:24:12;100591.78;;;1.00;64.62
21086;BME280;34247;50.064;19.970;2023-02-28T05:25:19;100591.81;;;0.97;64.78
21086;BME280;34247;50.064;19.970;2023-02-28T05:26:26;100590.91;;;0.99;64.71
21086;BME280;34247;50.064;19.970;2023-02-28T05:27:30;100594.41;;;0.98;64.96
21086;BME280;34247;50.064;19.970;2023-02-28T05:28:34;100585.69;;;0.99;64.79
21086;BME280;34247;50.064;19.970;2023-02-28T05:29:38;100582.22;;;0.97;65.04
21086;BME280;34247;50.064;19.970;2023-02-28T05:30:45;100594.44;;;0.94;65.11
21086;BME280;34247;50.064;19.970;2023-02-28T05:31:49;100593.56;;;0.93;65.09
21086;BME280;34247;50.064;19.970;2023-02-28T05:32:54;100591.84;;;0.92;65.29
21086;BME280;34247;50.064;19.970;2023-02-28T05:33:58;100595.31;;;0.93;65.43
21086;BME280;34247;50.064;19.970;2023-02-28T05:35:03;100591.84;;;0.91;65.30
21086;BME280;34247;50.064;19.970;2023-02-28T05:36:14;100598.81;;;0.92;65.54
21086;BME280;34247;50.064;19.970;2023-02-28T05:37:18;100599.69;;;0.91;65.64
21086;BME280;34247;50.064;19.970;2023-02-28T05:38:22;100602.34;;;0.88;65.81
21086;BME280;34247;50.064;19.970;2023-02-28T05:39:26;100606.72;;;0.86;65.77
21086;BME280;34247;50.064;19.970;2023-02-28T05:40:30;100607.56;;;0.89;65.58
21086;BME280;34247;50.064;19.970;2023-02-28T05:41:33;100601.44;;;0.90;65.76
21086;BME280;34247;50.064;19.970;2023-02-28T05:42:38;100599.72;;;0.89;66.04
21086;BME280;34247;50.064;19.970;2023-02-28T05:43:42;100604.94;;;0.91;65.86
21086;BME280;34247;50.064;19.970;2023-02-28T05:44:46;100607.53;;;0.91;65.86
21086;BME280;34247;50.064;19.970;2023-02-28T05:45:51;100607.53;;;0.91;65.72
21086;BME280;34247;50.064;19.970;2023-02-28T05:46:56;100613.69;;;0.88;65.91
21086;BME280;34247;50.064;19.970;2023-02-28T05:47:59;100618.03;;;0.88;66.32
21086;BME280;34247;50.064;19.970;2023-02-28T05:49:03;100613.66;;;0.90;65.95
21086;BME280;34247;50.064;19.970;2023-02-28T05:50:12;100617.16;;;0.89;66.01
21086;BME280;34247;50.064;19.970;2023-02-28T05:51:16;100622.38;;;0.90;66.41
21086;BME280;34247;50.064;19.970;2023-02-28T05:52:20;100619.72;;;0.92;66.30
21086;BME280;34247;50.064;19.970;2023-02-28T05:53:24;100622.34;;;0.92;66.39
21086;BME280;34247;50.064;19.970;2023-02-28T05:54:28;100631.94;;;0.94;66.07
21086;BME280;34247;50.064;19.970;2023-02-28T05:55:32;100632.78;;;0.93;66.32
21086;BME280;34247;50.064;19.970;2023-02-28T05:56:36;100638.03;;;0.95;66.04
21086;BME280;34247;50.064;19.970;2023-02-28T05:57:44;100634.53;;;0.96;66.18
21086;BME280;34247;50.064;19.970;2023-02-28T05:58:48;100631.91;;;0.96;66.31
21086;BME280;34247;50.064;19.970;2023-02-28T05:59:52;100633.66;;;0.97;66.22
21086;BME280;34247;50.064;19.970;2023-02-28T06:00:58;100638.00;;;0.98;66.22
21086;BME280;34247;50.064;19.970;2023-02-28T06:02:03;100633.66;;;0.97;66.14
21086;BME280;34247;50.064;19.970;2023-02-28T06:03:11;100632.78;;;0.96;66.51
21086;BME280;34247;50.064;19.970;2023-02-28T06:04:18;100636.25;;;0.98;66.36
21086;BME280;34247;50.064;19.970;2023-02-28T06:05:34;100630.19;;;0.95;66.48
21086;BME280;34247;50.064;19.970;2023-02-28T06:06:38;100634.53;;;0.96;66.87
21086;BME280;34247;50.064;19.970;2023-02-28T06:07:43;100635.41;;;0.95;66.88
21086;BME280;34247;50.064;19.970;2023-02-28T06:08:47;100632.78;;;0.96;66.67
21086;BME280;34247;50.064;19.970;2023-02-28T06:09:51;100629.28;;;0.97;66.68
21086;BME280;34247;50.064;19.970;2023-02-28T06:10:55;100631.88;;;0.99;66.65
21086;BME280;34247;50.064;19.970;2023-02-28T06:12:01;100631.03;;;0.97;67.14
21086;BME280;34247;50.064;19.970;2023-02-28T06:13:12;100641.47;;;1.00;66.78
21086;BME280;34247;50.064;19.970;2023-02-28T06:14:18;100635.34;;;0.99;67.04
21086;BME280;34247;50.064;19.970;2023-02-28T06:15:23;100631.00;;;1.00;66.88
21086;BME280;34247;50.064;19.970;2023-02-28T06:16:28;100637.09;;;1.03;66.72
21086;BME280;34247;50.064;19.970;2023-02-28T06:17:33;100631.00;;;1.03;66.98
21086;BME280;34247;50.064;19.970;2023-02-28T06:18:38;100635.34;;;1.01;67.17
21086;BME280;34247;50.064;19.970;2023-02-28T06:19:43;100641.44;;;1.01;67.25
21086;BME280;34247;50.064;19.970;2023-02-28T06:20:55;100640.59;;;1.02;67.33
21086;BME280;34247;50.064;19.970;2023-02-28T06:21:58;100644.03;;;1.04;67.40
21086;BME280;34247;50.064;19.970;2023-02-28T06:23:11;100644.03;;;1.06;67.07
21086;BME280;34247;50.064;19.970;2023-02-28T06:24:14;100643.13;;;1.07;67.16
21086;BME280;34247;50.064;19.970;2023-02-28T06:25:18;100651.88;;;1.09;67.27
21086;BME280;34247;50.064;19.970;2023-02-28T06:26:22;100657.09;;;1.06;67.61
21086;BME280;34247;50.064;19.970;2023-02-28T06:27:27;100646.66;;;1.04;67.52
21086;BME280;34247;50.064;19.970;2023-02-28T06:28:30;100651.00;;;1.07;67.40
21086;BME280;34247;50.064;19.970;2023-02-28T06:29:35;100642.25;;;1.08;67.64
21086;BME280;34247;50.064;19.970;2023-02-28T06:30:39;100638.75;;;1.12;67.38
21086;BME280;34247;50.064;19.970;2023-02-28T06:31:44;100637.88;;;1.13;67.33
21086;BME280;34247;50.064;19.970;2023-02-28T06:32:48;100650.03;;;1.16;67.54
21086;BME280;34247;50.064;19.970;2023-02-28T06:33:52;100643.97;;;1.12;67.71
21086;BME280;34247;50.064;19.970;2023-02-28T06:35:00;100653.56;;;1.13;67.57
21086;BME280;34247;50.064;19.970;2023-02-28T06:36:07;100657.91;;;1.14;67.80
21086;BME280;34247;50.064;19.970;2023-02-28T06:37:18;100647.44;;;1.17;67.62
21086;BME280;34247;50.064;19.970;2023-02-28T06:38:26;100652.63;;;1.20;67.46
21086;BME280;34247;50.064;19.970;2023-02-28T06:39:42;100656.09;;;1.22;67.75